sensor_id;sensor_type;location;lat;lon;timestamp;temperature;humidity
54558;DHT22;40452;50.080;20.040;2022-10-13T03:52:56;17.10;40.80
54558;DHT22;40452;50.080;20.040;2022-10-13T03:55:22;18.30;42.90
54558;DHT22;40452;50.080;20.040;2022-10-13T03:57:47;18.30;42.80
54558;DHT22;40452;50.080;20.040;2022-10-13T04:00:13;18.40;43.00
54558;DHT22;40452;50.080;20.040;2022-10-13T04:02:40;18.40;42.70
54558;DHT22;40452;50.080;20.040;2022-10-13T04:05:05;18.50;43.50
54558;DHT22;40452;50.080;20.040;2022-10-13T04:07:31;18.50;43.50
54558;DHT22;40452;50.080;20.040;2022-10-13T04:09:56;18.60;43.90
54558;DHT22;40452;50.080;20.040;2022-10-13T04:12:22;18.60;43.90
54558;DHT22;40452;50.080;20.040;2022-10-13T04:14:47;18.60;43.90
54558;DHT22;40452;50.080;20.040;2022-10-13T04:17:13;18.60;44.10
54558;DHT22;40452;50.080;20.040;2022-10-13T04:19:38;18.70;44.10
54558;DHT22;40452;50.080;20.040;2022-10-13T04:22:04;18.70;44.10
54558;DHT22;40452;50.080;20.040;2022-10-13T04:24:30;18.70;43.90
54558;DHT22;40452;50.080;20.040;2022-10-13T04:26:55;18.80;44.00
54558;DHT22;40452;50.080;20.040;2022-10-13T04:29:21;18.80;44.20
54558;DHT22;40452;50.080;20.040;2022-10-13T04:31:46;18.80;44.00
54558;DHT22;40452;50.080;20.040;2022-10-13T04:34:12;18.80;44.20
54558;DHT22;40452;50.080;20.040;2022-10-13T04:36:37;18.90;44.20
54558;DHT22;40452;50.080;20.040;2022-10-13T04:39:03;18.90;44.30
54558;DHT22;40452;50.080;20.040;2022-10-13T04:41:29;18.90;44.20
54558;DHT22;40452;50.080;20.040;2022-10-13T04:43:54;18.90;44.10
54558;DHT22;40452;50.080;20.040;2022-10-13T04:46:28;18.90;44.10
54558;DHT22;40452;50.080;20.040;2022-10-13T04:48:55;19.00;44.20
54558;DHT22;40452;50.080;20.040;2022-10-13T04:51:23;19.00;44.10
54558;DHT22;40452;50.080;20.040;2022-10-13T04:53:53;19.00;44.10
54558;DHT22;40452;50.080;20.040;2022-10-13T04:56:19;19.00;43.90
54558;DHT22;40452;50.080;20.040;2022-10-13T04:58:45;19.10;44.40
54558;DHT22;40452;50.080;20.040;2022-10-13T05:01:19;19.20;46.50
54558;DHT22;40452;50.080;20.040;2022-10-13T05:03:45;19.20;46.70
54558;DHT22;40452;50.080;20.040;2022-10-13T05:06:19;19.20;47.00
54558;DHT22;40452;50.080;20.040;2022-10-13T05:08:45;19.20;47.20
54558;DHT22;40452;50.080;20.040;2022-10-13T05:11:11;19.30;47.70
54558;DHT22;40452;50.080;20.040;2022-10-13T05:13:36;19.30;48.50
54558;DHT22;40452;50.080;20.040;2022-10-13T05:16:07;19.30;47.80
54558;DHT22;40452;50.080;20.040;2022-10-13T05:18:32;19.40;47.80
54558;DHT22;40452;50.080;20.040;2022-10-13T05:21:11;19.40;47.90
54558;DHT22;40452;50.080;20.040;2022-10-13T05:23:38;19.50;46.60
54558;DHT22;40452;50.080;20.040;2022-10-13T05:26:06;19.50;46.70
54558;DHT22;40452;50.080;20.040;2022-10-13T05:28:32;19.50;46.50
54558;DHT22;40452;50.080;20.040;2022-10-13T05:31:17;19.50;46.10
54558;DHT22;40452;50.080;20.040;2022-10-13T05:33:43;19.40;44.60
54558;DHT22;40452;50.080;20.040;2022-10-13T05:36:18;19.40;45.30
54558;DHT22;40452;50.080;20.040;2022-10-13T05:38:44;19.50;45.30
54558;DHT22;40452;50.080;20.040;2022-10-13T05:41:12;19.50;44.70
54558;DHT22;40452;50.080;20.040;2022-10-13T05:43:39;19.50;44.50
54558;DHT22;40452;50.080;20.040;2022-10-13T05:46:05;19.50;44.40
54558;DHT22;40452;50.080;20.040;2022-10-13T05:48:32;19.60;44.40
54558;DHT22;40452;50.080;20.040;2022-10-13T05:50:59;19.70;44.30
54558;DHT22;40452;50.080;20.040;2022-10-13T05:53:28;19.70;44.20
54558;DHT22;40452;50.080;20.040;2022-10-13T05:55:57;19.70;44.30
54558;DHT22;40452;50.080;20.040;2022-10-13T05:58:32;19.70;44.10
54558;DHT22;40452;50.080;20.040;2022-10-13T06:00:58;19.80;44.40
54558;DHT22;40452;50.080;20.040;2022-10-13T06:03:23;19.80;44.60
54558;DHT22;40452;50.080;20.040;2022-10-13T06:05:49;19.80;44.70
54558;DHT22;40452;50.080;20.040;2022-10-13T06:08:15;19.80;44.60
54558;DHT22;40452;50.080;20.040;2022-10-13T06:10:41;19.80;44.00
54558;DHT22;40452;50.080;20.040;2022-10-13T06:13:08;19.80;44.00
54558;DHT22;40452;50.080;20.040;2022-10-13T06:15:34;19.80;44.10
54558;DHT22;40452;50.080;20.040;2022-10-13T06:17:59;19.80;44.20
54558;DHT22;40452;50.080;20.040;2022-10-13T06:20:25;19.80;44.30
54558;DHT22;40452;50.080;20.040;2022-10-13T06:22:55;19.80;44.30
54558;DHT22;40452;50.080;20.040;2022-10-13T06:25:20;19.80;44.40
54558;DHT22;40452;50.080;20.040;2022-10-13T06:27:46;19.90;44.50
54558;DHT22;40452;50.080;20.040;2022-10-13T06:30:11;19.90;45.50
54558;DHT22;40452;50.080;20.040;2022-10-13T06:32:37;19.90;45.90
54558;DHT22;40452;50.080;20.040;2022-10-13T06:35:03;19.90;46.80
54558;DHT22;40452;50.080;20.040;2022-10-13T06:37:29;19.90;47.10
54558;DHT22;40452;50.080;20.040;2022-10-13T06:39:54;20.00;47.10
54558;DHT22;40452;50.080;20.040;2022-10-13T06:42:20;20.00;47.50
54558;DHT22;40452;50.080;20.040;2022-10-13T06:44:45;20.00;47.30
54558;DHT22;40452;50.080;20.040;2022-10-13T06:47:11;20.00;47.20
54558;DHT22;40452;50.080;20.040;2022-10-13T06:49:36;20.10;47.00
54558;DHT22;40452;50.080;20.040;2022-10-13T06:52:03;20.10;47.30
54558;DHT22;40452;50.080;20.040;2022-10-13T06:54:28;20.20;47.20
54558;DHT22;40452;50.080;20.040;2022-10-13T06:56:54;20.10;47.10
54558;DHT22;40452;50.080;20.040;2022-10-13T06:59:20;20.10;46.90
54558;DHT22;40452;50.080;20.040;2022-10-13T07:01:46;20.10;46.60
54558;DHT22;40452;50.080;20.040;2022-10-13T07:04:12;20.10;46.40
54558;DHT22;40452;50.080;20.040;2022-10-13T07:06:38;20.10;46.20
54558;DHT22;40452;50.080;20.040;2022-10-13T07:09:04;20.10;46.10
54558;DHT22;40452;50.080;20.040;2022-10-13T07:11:30;20.10;45.90
54558;DHT22;40452;50.080;20.040;2022-10-13T07:13:56;20.10;45.90
54558;DHT22;40452;50.080;20.040;2022-10-13T07:16:21;20.10;45.90
54558;DHT22;40452;50.080;20.040;2022-10-13T07:18:47;20.10;45.80
54558;DHT22;40452;50.080;20.040;2022-10-13T07:21:13;20.10;46.50
54558;DHT22;40452;50.080;20.040;2022-10-13T07:23:39;20.20;45.90
54558;DHT22;40452;50.080;20.040;2022-10-13T07:26:13;20.20;45.90
54558;DHT22;40452;50.080;20.040;2022-10-13T07:28:39;20.20;46.00
54558;DHT22;40452;50.080;20.040;2022-10-13T07:31:13;20.20;46.00
54558;DHT22;40452;50.080;20.040;2022-10-13T14:48:08;20.10;48.50
54558;DHT22;40452;50.080;20.040;2022-10-13T14:50:36;20.60;48.90
54558;DHT22;40452;50.080;20.040;2022-10-13T14:53:02;20.60;48.80
54558;DHT22;40452;50.080;20.040;2022-10-13T14:55:27;20.60;48.60
54558;DHT22;40452;50.080;20.040;2022-10-13T14:57:53;20.60;48.50
54558;DHT22;40452;50.080;20.040;2022-10-13T15:00:18;20.70;48.30
54558;DHT22;40452;50.080;20.040;2022-10-13T15:02:44;20.70;48.40
54558;DHT22;40452;50.080;20.040;2022-10-13T15:05:09;20.60;48.40
54558;DHT22;40452;50.080;20.040;2022-10-13T15:07:35;20.60;48.30
54558;DHT22;40452;50.080;20.040;2022-10-13T15:10:00;20.60;48.20
54558;DHT22;40452;50.080;20.040;2022-10-13T15:12:26;20.60;48.50
54558;DHT22;40452;50.080;20.040;2022-10-13T15:14:52;20.60;48.70
54558;DHT22;40452;50.080;20.040;2022-10-13T15:17:17;20.60;48.70
54558;DHT22;40452;50.080;20.040;2022-10-13T15:19:43;20.60;48.80
54558;DHT22;40452;50.080;20.040;2022-10-13T15:22:08;20.60;48.90
54558;DHT22;40452;50.080;20.040;2022-10-13T15:24:34;20.60;48.90
54558;DHT22;40452;50.080;20.040;2022-10-13T15:26:59;20.60;48.90
54558;DHT22;40452;50.080;20.040;2022-10-13T15:29:25;20.60;48.80
54558;DHT22;40452;50.080;20.040;2022-10-13T15:31:50;20.60;48.70
54558;DHT22;40452;50.080;20.040;2022-10-13T15:34:16;20.60;48.70
54558;DHT22;40452;50.080;20.040;2022-10-13T15:36:41;20.60;48.60
54558;DHT22;40452;50.080;20.040;2022-10-13T15:39:09;20.60;48.60
54558;DHT22;40452;50.080;20.040;2022-10-13T15:41:35;20.60;48.70
54558;DHT22;40452;50.080;20.040;2022-10-13T15:44:00;20.60;48.80
54558;DHT22;40452;50.080;20.040;2022-10-13T15:46:26;20.60;48.90
54558;DHT22;40452;50.080;20.040;2022-10-13T15:48:52;20.60;48.90
54558;DHT22;40452;50.080;20.040;2022-10-13T15:51:22;20.70;49.70
54558;DHT22;40452;50.080;20.040;2022-10-13T15:53:48;20.70;49.00
54558;DHT22;40452;50.080;20.040;2022-10-13T15:56:14;20.70;49.00
54558;DHT22;40452;50.080;20.040;2022-10-13T15:58:40;20.80;49.10
54558;DHT22;40452;50.080;20.040;2022-10-13T16:01:07;20.70;49.20
54558;DHT22;40452;50.080;20.040;2022-10-13T16:03:33;20.70;49.20
54558;DHT22;40452;50.080;20.040;2022-10-13T16:06:05;20.70;49.30
54558;DHT22;40452;50.080;20.040;2022-10-13T16:08:31;20.70;49.30
54558;DHT22;40452;50.080;20.040;2022-10-13T16:10:57;20.70;49.20
54558;DHT22;40452;50.080;20.040;2022-10-13T16:13:22;20.70;49.30
54558;DHT22;40452;50.080;20.040;2022-10-13T16:15:58;20.70;49.40
54558;DHT22;40452;50.080;20.040;2022-10-13T16:18:30;20.70;49.30
54558;DHT22;40452;50.080;20.040;2022-10-13T16:20:56;20.80;49.10
54558;DHT22;40452;50.080;20.040;2022-10-13T16:23:22;20.70;49.20
54558;DHT22;40452;50.080;20.040;2022-10-13T16:25:48;20.80;49.60
54558;DHT22;40452;50.080;20.040;2022-10-13T16:28:13;20.70;50.00
54558;DHT22;40452;50.080;20.040;2022-10-13T16:30:39;20.70;50.40
54558;DHT22;40452;50.080;20.040;2022-10-13T16:33:05;20.70;51.00
54558;DHT22;40452;50.080;20.040;2022-10-13T16:35:30;20.70;51.40
54558;DHT22;40452;50.080;20.040;2022-10-13T16:37:56;20.70;51.40
54558;DHT22;40452;50.080;20.040;2022-10-13T16:40:21;20.70;51.30
54558;DHT22;40452;50.080;20.040;2022-10-13T16:42:47;20.80;51.60
54558;DHT22;40452;50.080;20.040;2022-10-13T16:45:12;20.80;51.60
54558;DHT22;40452;50.080;20.040;2022-10-13T16:47:38;20.80;51.70
54558;DHT22;40452;50.080;20.040;2022-10-13T16:50:04;20.70;52.00
54558;DHT22;40452;50.080;20.040;2022-10-13T16:52:36;20.70;52.10
54558;DHT22;40452;50.080;20.040;2022-10-13T16:55:03;20.70;52.20
54558;DHT22;40452;50.080;20.040;2022-10-13T16:57:30;20.70;51.90
54558;DHT22;40452;50.080;20.040;2022-10-13T16:59:55;20.70;51.80
54558;DHT22;40452;50.080;20.040;2022-10-13T17:02:21;20.70;51.60
54558;DHT22;40452;50.080;20.040;2022-10-13T17:04:46;20.80;51.50
54558;DHT22;40452;50.080;20.040;2022-10-13T17:07:12;20.80;51.10
54558;DHT22;40452;50.080;20.040;2022-10-13T17:09:38;20.70;51.10
54558;DHT22;40452;50.080;20.040;2022-10-13T17:12:04;20.70;50.90
54558;DHT22;40452;50.080;20.040;2022-10-13T17:14:30;20.70;51.40
54558;DHT22;40452;50.080;20.040;2022-10-13T17:16:55;20.70;50.70
54558;DHT22;40452;50.080;20.040;2022-10-13T17:19:21;20.70;50.60
54558;DHT22;40452;50.080;20.040;2022-10-13T17:21:46;20.70;50.60
54558;DHT22;40452;50.080;20.040;2022-10-13T17:24:12;20.70;50.50
54558;DHT22;40452;50.080;20.040;2022-10-13T17:26:38;20.70;50.50
54558;DHT22;40452;50.080;20.040;2022-10-13T17:29:03;20.70;50.50
54558;DHT22;40452;50.080;20.040;2022-10-13T17:31:29;20.70;50.40
54558;DHT22;40452;50.080;20.040;2022-10-13T17:33:55;20.70;50.30
54558;DHT22;40452;50.080;20.040;2022-10-13T17:36:25;20.70;50.30
54558;DHT22;40452;50.080;20.040;2022-10-13T17:38:53;20.70;51.20
54558;DHT22;40452;50.080;20.040;2022-10-13T17:41:19;20.70;51.40
54558;DHT22;40452;50.080;20.040;2022-10-13T17:43:46;20.70;51.80
54558;DHT22;40452;50.080;20.040;2022-10-13T17:46:21;20.80;51.90
54558;DHT22;40452;50.080;20.040;2022-10-13T17:48:47;20.70;51.70
54558;DHT22;40452;50.080;20.040;2022-10-13T17:51:14;20.70;51.80
54558;DHT22;40452;50.080;20.040;2022-10-13T17:53:42;20.70;52.20
54558;DHT22;40452;50.080;20.040;2022-10-13T17:56:11;20.80;52.40
54558;DHT22;40452;50.080;20.040;2022-10-13T17:58:38;20.70;52.10
54558;DHT22;40452;50.080;20.040;2022-10-13T18:01:06;20.70;52.30
54558;DHT22;40452;50.080;20.040;2022-10-13T18:03:32;20.80;51.90
54558;DHT22;40452;50.080;20.040;2022-10-13T18:05:58;20.70;52.10
54558;DHT22;40452;50.080;20.040;2022-10-13T18:08:24;20.70;52.40
54558;DHT22;40452;50.080;20.040;2022-10-13T18:10:49;20.70;52.70
54558;DHT22;40452;50.080;20.040;2022-10-13T18:13:15;20.80;53.80
54558;DHT22;40452;50.080;20.040;2022-10-13T18:15:40;20.80;53.40
54558;DHT22;40452;50.080;20.040;2022-10-13T18:18:07;20.80;54.40
54558;DHT22;40452;50.080;20.040;2022-10-13T18:20:35;20.80;54.20
54558;DHT22;40452;50.080;20.040;2022-10-13T18:23:02;20.80;54.20
54558;DHT22;40452;50.080;20.040;2022-10-13T18:25:28;20.80;54.50
54558;DHT22;40452;50.080;20.040;2022-10-13T18:27:53;20.80;54.00
54558;DHT22;40452;50.080;20.040;2022-10-13T18:30:19;20.80;53.10
54558;DHT22;40452;50.080;20.040;2022-10-13T18:32:45;20.80;52.80
54558;DHT22;40452;50.080;20.040;2022-10-13T18:35:10;20.80;52.50
54558;DHT22;40452;50.080;20.040;2022-10-13T18:37:36;20.80;52.50
54558;DHT22;40452;50.080;20.040;2022-10-13T18:40:02;20.80;52.70
54558;DHT22;40452;50.080;20.040;2022-10-13T18:42:29;20.80;52.80
54558;DHT22;40452;50.080;20.040;2022-10-13T18:44:54;20.80;52.80
54558;DHT22;40452;50.080;20.040;2022-10-13T18:47:20;20.80;53.20
54558;DHT22;40452;50.080;20.040;2022-10-13T18:49:45;20.80;52.50
54558;DHT22;40452;50.080;20.040;2022-10-13T18:52:11;20.80;52.50
54558;DHT22;40452;50.080;20.040;2022-10-13T18:54:37;20.70;52.40
54558;DHT22;40452;50.080;20.040;2022-10-13T18:57:02;20.80;52.50
54558;DHT22;40452;50.080;20.040;2022-10-13T18:59:28;20.80;52.90
54558;DHT22;40452;50.080;20.040;2022-10-13T19:01:53;20.70;51.80
54558;DHT22;40452;50.080;20.040;2022-10-13T19:04:20;20.70;51.50
54558;DHT22;40452;50.080;20.040;2022-10-13T19:06:46;20.70;51.40
54558;DHT22;40452;50.080;20.040;2022-10-13T19:09:13;20.60;51.10
54558;DHT22;40452;50.080;20.040;2022-10-13T19:11:40;20.60;50.80
54558;DHT22;40452;50.080;20.040;2022-10-13T19:14:07;20.60;50.60
54558;DHT22;40452;50.080;20.040;2022-10-13T19:16:38;20.60;50.50
54558;DHT22;40452;50.080;20.040;2022-10-13T19:19:04;20.60;50.50
54558;DHT22;40452;50.080;20.040;2022-10-13T19:21:30;20.60;50.60
54558;DHT22;40452;50.080;20.040;2022-10-13T19:24:00;20.60;50.60
54558;DHT22;40452;50.080;20.040;2022-10-13T19:26:29;20.70;50.50
54558;DHT22;40452;50.080;20.040;2022-10-13T19:29:04;20.70;50.40
54558;DHT22;40452;50.080;20.040;2022-10-13T19:31:32;20.70;50.20
54558;DHT22;40452;50.080;20.040;2022-10-13T19:33:58;20.70;50.20
54558;DHT22;40452;50.080;20.040;2022-10-13T19:36:31;20.70;50.10
54558;DHT22;40452;50.080;20.040;2022-10-13T19:38:58;20.70;50.10
54558;DHT22;40452;50.080;20.040;2022-10-13T19:41:24;20.70;50.00
54558;DHT22;40452;50.080;20.040;2022-10-13T19:43:51;20.70;50.00
54558;DHT22;40452;50.080;20.040;2022-10-13T19:46:18;20.60;49.80
54558;DHT22;40452;50.080;20.040;2022-10-13T19:48:43;20.70;49.80
54558;DHT22;40452;50.080;20.040;2022-10-13T19:51:10;20.60;49.70
54558;DHT22;40452;50.080;20.040;2022-10-13T19:53:36;20.60;49.70
54558;DHT22;40452;50.080;20.040;2022-10-13T19:56:02;20.60;49.60
54558;DHT22;40452;50.080;20.040;2022-10-13T19:58:29;20.60;49.60
54558;DHT22;40452;50.080;20.040;2022-10-13T20:00:54;20.60;49.60
54558;DHT22;40452;50.080;20.040;2022-10-13T20:03:20;20.60;49.50
54558;DHT22;40452;50.080;20.040;2022-10-13T20:05:45;20.60;49.50
54558;DHT22;40452;50.080;20.040;2022-10-13T20:08:12;20.60;49.50
54558;DHT22;40452;50.080;20.040;2022-10-13T20:10:41;20.60;49.40
54558;DHT22;40452;50.080;20.040;2022-10-13T20:13:08;20.60;49.50
54558;DHT22;40452;50.080;20.040;2022-10-13T20:15:37;20.60;49.40
54558;DHT22;40452;50.080;20.040;2022-10-13T20:18:03;20.60;49.40
54558;DHT22;40452;50.080;20.040;2022-10-13T20:20:29;20.60;49.30
54558;DHT22;40452;50.080;20.040;2022-10-13T20:22:55;20.60;49.30
54558;DHT22;40452;50.080;20.040;2022-10-13T20:25:20;20.60;49.30
54558;DHT22;40452;50.080;20.040;2022-10-13T20:27:46;20.60;49.20
54558;DHT22;40452;50.080;20.040;2022-10-13T20:30:12;20.60;49.20
54558;DHT22;40452;50.080;20.040;2022-10-13T20:32:37;20.60;49.10
54558;DHT22;40452;50.080;20.040;2022-10-13T20:35:03;20.60;49.10
54558;DHT22;40452;50.080;20.040;2022-10-13T20:37:29;20.60;49.20
54558;DHT22;40452;50.080;20.040;2022-10-13T20:39:55;20.60;49.10
54558;DHT22;40452;50.080;20.040;2022-10-13T20:42:21;20.60;49.10
54558;DHT22;40452;50.080;20.040;2022-10-13T20:44:47;20.60;49.00
54558;DHT22;40452;50.080;20.040;2022-10-13T20:47:12;20.60;49.10
54558;DHT22;40452;50.080;20.040;2022-10-13T20:49:38;20.60;49.00
54558;DHT22;40452;50.080;20.040;2022-10-13T20:52:03;20.60;49.00
54558;DHT22;40452;50.080;20.040;2022-10-13T20:54:29;20.60;49.00
54558;DHT22;40452;50.080;20.040;2022-10-13T20:56:55;20.60;48.90
54558;DHT22;40452;50.080;20.040;2022-10-13T20:59:20;20.50;48.90
54558;DHT22;40452;50.080;20.040;2022-10-13T21:01:46;20.50;49.50
54558;DHT22;40452;50.080;20.040;2022-10-13T21:04:11;20.50;48.90
54558;DHT22;40452;50.080;20.040;2022-10-13T21:06:37;20.50;48.80
54558;DHT22;40452;50.080;20.040;2022-10-13T21:09:04;20.50;48.80
54558;DHT22;40452;50.080;20.040;2022-10-13T21:11:30;20.50;48.80
54558;DHT22;40452;50.080;20.040;2022-10-13T21:13:55;20.50;48.80
54558;DHT22;40452;50.080;20.040;2022-10-13T21:16:26;20.50;48.70
54558;DHT22;40452;50.080;20.040;2022-10-13T21:18:53;20.60;48.70
54558;DHT22;40452;50.080;20.040;2022-10-13T21:21:26;20.50;48.60
54558;DHT22;40452;50.080;20.040;2022-10-13T21:23:57;20.50;48.70
54558;DHT22;40452;50.080;20.040;2022-10-13T21:26:24;20.50;48.60
54558;DHT22;40452;50.080;20.040;2022-10-13T21:28:50;20.50;48.60
54558;DHT22;40452;50.080;20.040;2022-10-13T21:31:17;20.50;49.20
54558;DHT22;40452;50.080;20.040;2022-10-13T21:33:43;20.50;48.50
54558;DHT22;40452;50.080;20.040;2022-10-13T21:36:11;20.50;48.50
54558;DHT22;40452;50.080;20.040;2022-10-13T21:38:37;20.50;48.50
54558;DHT22;40452;50.080;20.040;2022-10-13T21:41:04;20.50;48.50
54558;DHT22;40452;50.080;20.040;2022-10-13T21:43:29;20.50;48.50
54558;DHT22;40452;50.080;20.040;2022-10-13T21:45:55;20.50;48.50
54558;DHT22;40452;50.080;20.040;2022-10-13T21:48:20;20.50;48.40
54558;DHT22;40452;50.080;20.040;2022-10-13T21:50:46;20.50;48.30
54558;DHT22;40452;50.080;20.040;2022-10-13T21:53:11;20.50;48.40
54558;DHT22;40452;50.080;20.040;2022-10-13T21:55:37;20.50;48.40
54558;DHT22;40452;50.080;20.040;2022-10-13T21:58:03;20.50;48.40
54558;DHT22;40452;50.080;20.040;2022-10-13T22:00:29;20.50;48.30
54558;DHT22;40452;50.080;20.040;2022-10-13T22:02:55;20.50;48.40
54558;DHT22;40452;50.080;20.040;2022-10-13T22:05:22;20.50;48.30
54558;DHT22;40452;50.080;20.040;2022-10-13T22:07:48;20.50;48.40
54558;DHT22;40452;50.080;20.040;2022-10-13T22:10:13;20.40;48.40
54558;DHT22;40452;50.080;20.040;2022-10-13T22:12:39;20.50;48.40
54558;DHT22;40452;50.080;20.040;2022-10-13T22:15:04;20.40;48.30
54558;DHT22;40452;50.080;20.040;2022-10-13T22:17:30;20.40;48.40
54558;DHT22;40452;50.080;20.040;2022-10-13T22:19:56;20.40;48.40
54558;DHT22;40452;50.080;20.040;2022-10-13T22:22:21;20.40;48.30
54558;DHT22;40452;50.080;20.040;2022-10-13T22:24:47;20.40;48.30
54558;DHT22;40452;50.080;20.040;2022-10-13T22:27:12;20.40;48.30
54558;DHT22;40452;50.080;20.040;2022-10-13T22:29:38;20.50;48.30
54558;DHT22;40452;50.080;20.040;2022-10-13T22:32:03;20.40;48.20
54558;DHT22;40452;50.080;20.040;2022-10-13T22:34:29;20.50;48.20
54558;DHT22;40452;50.080;20.040;2022-10-13T22:36:54;20.40;48.20
54558;DHT22;40452;50.080;20.040;2022-10-13T22:39:20;20.50;48.20
54558;DHT22;40452;50.080;20.040;2022-10-13T22:41:45;20.40;48.10
54558;DHT22;40452;50.080;20.040;2022-10-13T22:44:11;20.40;48.20
54558;DHT22;40452;50.080;20.040;2022-10-13T22:46:38;20.40;48.10
54558;DHT22;40452;50.080;20.040;2022-10-13T22:49:05;20.40;48.10
54558;DHT22;40452;50.080;20.040;2022-10-13T22:51:32;20.40;48.10
54558;DHT22;40452;50.080;20.040;2022-10-13T22:53:58;20.40;48.10
54558;DHT22;40452;50.080;20.040;2022-10-13T22:56:26;20.40;48.10
54558;DHT22;40452;50.080;20.040;2022-10-13T22:58:54;20.40;48.00
54558;DHT22;40452;50.080;20.040;2022-10-13T23:01:21;20.40;48.10
54558;DHT22;40452;50.080;20.040;2022-10-13T23:03:48;20.40;48.00
54558;DHT22;40452;50.080;20.040;2022-10-13T23:06:15;20.40;48.00
54558;DHT22;40452;50.080;20.040;2022-10-13T23:08:41;20.40;48.00
54558;DHT22;40452;50.080;20.040;2022-10-13T23:11:07;20.40;48.00
54558;DHT22;40452;50.080;20.040;2022-10-13T23:13:32;20.40;47.70
54558;DHT22;40452;50.080;20.040;2022-10-13T23:16:19;20.40;47.90
